sensor_id;sensor_type;location;lat;lon;timestamp;P1;durP1;ratioP1;P2;durP2;ratioP2
39044;SDS011;52192;52.002;5.956;2022-10-31T00:01:24;2.38;;;1.75;;
39044;SDS011;52192;52.002;5.956;2022-10-31T00:03:55;1.88;;;1.52;;
39044;SDS011;52192;52.002;5.956;2022-10-31T00:06:21;2.80;;;1.80;;
39044;SDS011;52192;52.002;5.956;2022-10-31T00:08:51;3.58;;;1.60;;
39044;SDS011;52192;52.002;5.956;2022-10-31T00:11:18;2.20;;;1.52;;
39044;SDS011;52192;52.002;5.956;2022-10-31T00:13:44;3.08;;;1.75;;
39044;SDS011;52192;52.002;5.956;2022-10-31T00:16:13;2.92;;;1.67;;
39044;SDS011;52192;52.002;5.956;2022-10-31T00:18:40;2.47;;;1.95;;
39044;SDS011;52192;52.002;5.956;2022-10-31T00:21:05;4.60;;;1.67;;
39044;SDS011;52192;52.002;5.956;2022-10-31T00:23:31;5.93;;;1.92;;
39044;SDS011;52192;52.002;5.956;2022-10-31T00:26:03;9.48;;;1.63;;
39044;SDS011;52192;52.002;5.956;2022-10-31T00:28:30;2.95;;;1.45;;
39044;SDS011;52192;52.002;5.956;2022-10-31T00:31:00;1.90;;;1.33;;
39044;SDS011;52192;52.002;5.956;2022-10-31T00:33:27;3.67;;;2.20;;
39044;SDS011;52192;52.002;5.956;2022-10-31T00:35:53;3.28;;;2.08;;
39044;SDS011;52192;52.002;5.956;2022-10-31T00:38:19;2.20;;;1.85;;
39044;SDS011;52192;52.002;5.956;2022-10-31T00:40:45;4.30;;;2.22;;
39044;SDS011;52192;52.002;5.956;2022-10-31T00:43:11;4.60;;;1.80;;
39044;SDS011;52192;52.002;5.956;2022-10-31T00:45:37;2.58;;;1.77;;
39044;SDS011;52192;52.002;5.956;2022-10-31T00:48:03;4.30;;;1.48;;
39044;SDS011;52192;52.002;5.956;2022-10-31T00:50:29;4.30;;;1.50;;
39044;SDS011;52192;52.002;5.956;2022-10-31T00:52:55;3.80;;;1.98;;
39044;SDS011;52192;52.002;5.956;2022-10-31T00:55:21;4.28;;;2.55;;
39044;SDS011;52192;52.002;5.956;2022-10-31T00:57:47;2.72;;;1.90;;
39044;SDS011;52192;52.002;5.956;2022-10-31T01:00:13;3.58;;;2.05;;
39044;SDS011;52192;52.002;5.956;2022-10-31T01:02:39;3.10;;;1.30;;
39044;SDS011;52192;52.002;5.956;2022-10-31T01:05:05;2.10;;;1.50;;
39044;SDS011;52192;52.002;5.956;2022-10-31T01:07:31;2.33;;;1.38;;
39044;SDS011;52192;52.002;5.956;2022-10-31T01:10:00;2.38;;;2.03;;
39044;SDS011;52192;52.002;5.956;2022-10-31T01:12:25;4.50;;;1.92;;
39044;SDS011;52192;52.002;5.956;2022-10-31T01:14:51;2.25;;;1.40;;
39044;SDS011;52192;52.002;5.956;2022-10-31T01:17:17;7.53;;;1.80;;
39044;SDS011;52192;52.002;5.956;2022-10-31T01:19:42;2.88;;;1.50;;
39044;SDS011;52192;52.002;5.956;2022-10-31T01:22:08;3.75;;;1.80;;
39044;SDS011;52192;52.002;5.956;2022-10-31T01:24:34;3.30;;;2.03;;
39044;SDS011;52192;52.002;5.956;2022-10-31T01:26:59;3.13;;;1.90;;
39044;SDS011;52192;52.002;5.956;2022-10-31T01:29:25;4.20;;;1.92;;
39044;SDS011;52192;52.002;5.956;2022-10-31T01:31:50;2.65;;;2.08;;
39044;SDS011;52192;52.002;5.956;2022-10-31T01:34:16;4.18;;;2.42;;
39044;SDS011;52192;52.002;5.956;2022-10-31T01:36:43;3.33;;;1.90;;
39044;SDS011;52192;52.002;5.956;2022-10-31T01:39:12;3.33;;;1.67;;
39044;SDS011;52192;52.002;5.956;2022-10-31T01:41:40;2.83;;;1.88;;
39044;SDS011;52192;52.002;5.956;2022-10-31T01:49:08;3.20;;;2.25;;
39044;SDS011;52192;52.002;5.956;2022-10-31T01:51:38;3.03;;;2.40;;
39044;SDS011;52192;52.002;5.956;2022-10-31T01:54:10;5.70;;;2.30;;
39044;SDS011;52192;52.002;5.956;2022-10-31T01:56:40;7.22;;;2.60;;
39044;SDS011;52192;52.002;5.956;2022-10-31T01:59:11;3.60;;;1.67;;
39044;SDS011;52192;52.002;5.956;2022-10-31T02:01:39;5.90;;;2.40;;
39044;SDS011;52192;52.002;5.956;2022-10-31T02:04:05;3.15;;;2.08;;
39044;SDS011;52192;52.002;5.956;2022-10-31T02:09:04;3.47;;;1.70;;
39044;SDS011;52192;52.002;5.956;2022-10-31T02:11:30;4.15;;;2.40;;
39044;SDS011;52192;52.002;5.956;2022-10-31T02:13:58;3.92;;;2.20;;
39044;SDS011;52192;52.002;5.956;2022-10-31T02:16:25;4.63;;;2.40;;
39044;SDS011;52192;52.002;5.956;2022-10-31T02:18:50;7.50;;;2.35;;
39044;SDS011;52192;52.002;5.956;2022-10-31T02:21:18;5.03;;;2.20;;
39044;SDS011;52192;52.002;5.956;2022-10-31T02:23:57;15.20;;;2.53;;
39044;SDS011;52192;52.002;5.956;2022-10-31T02:37:29;2.58;;;2.17;;
39044;SDS011;52192;52.002;5.956;2022-10-31T02:45:57;2.78;;;2.28;;
39044;SDS011;52192;52.002;5.956;2022-10-31T02:48:31;2.42;;;1.90;;
39044;SDS011;52192;52.002;5.956;2022-10-31T02:51:00;3.03;;;1.88;;
39044;SDS011;52192;52.002;5.956;2022-10-31T02:53:34;3.80;;;2.22;;
39044;SDS011;52192;52.002;5.956;2022-10-31T02:56:05;3.60;;;1.90;;
39044;SDS011;52192;52.002;5.956;2022-10-31T02:58:33;3.58;;;2.15;;
39044;SDS011;52192;52.002;5.956;2022-10-31T03:03:51;2.75;;;2.17;;
39044;SDS011;52192;52.002;5.956;2022-10-31T03:08:58;4.03;;;2.63;;
39044;SDS011;52192;52.002;5.956;2022-10-31T03:11:55;3.70;;;2.83;;
39044;SDS011;52192;52.002;5.956;2022-10-31T03:17:27;2.55;;;1.83;;
39044;SDS011;52192;52.002;5.956;2022-10-31T03:20:00;3.90;;;2.38;;
39044;SDS011;52192;52.002;5.956;2022-10-31T03:22:31;10.23;;;2.22;;
39044;SDS011;52192;52.002;5.956;2022-10-31T03:24:58;4.05;;;2.53;;
39044;SDS011;52192;52.002;5.956;2022-10-31T03:27:28;4.53;;;2.03;;
39044;SDS011;52192;52.002;5.956;2022-10-31T03:29:57;4.65;;;2.30;;
39044;SDS011;52192;52.002;5.956;2022-10-31T03:32:29;2.38;;;2.15;;
39044;SDS011;52192;52.002;5.956;2022-10-31T03:34:58;3.75;;;2.25;;
39044;SDS011;52192;52.002;5.956;2022-10-31T03:37:27;4.78;;;2.75;;
39044;SDS011;52192;52.002;5.956;2022-10-31T03:39:55;2.70;;;1.88;;
39044;SDS011;52192;52.002;5.956;2022-10-31T03:42:25;4.40;;;2.40;;
39044;SDS011;52192;52.002;5.956;2022-10-31T03:45:02;4.05;;;2.10;;
39044;SDS011;52192;52.002;5.956;2022-10-31T03:47:36;2.90;;;2.10;;
39044;SDS011;52192;52.002;5.956;2022-10-31T03:50:04;4.32;;;2.42;;
39044;SDS011;52192;52.002;5.956;2022-10-31T03:52:36;5.35;;;2.08;;
39044;SDS011;52192;52.002;5.956;2022-10-31T03:55:20;6.82;;;2.25;;
39044;SDS011;52192;52.002;5.956;2022-10-31T03:58:00;4.47;;;2.13;;
39044;SDS011;52192;52.002;5.956;2022-10-31T04:00:33;5.03;;;2.58;;
39044;SDS011;52192;52.002;5.956;2022-10-31T04:03:05;2.60;;;1.83;;
39044;SDS011;52192;52.002;5.956;2022-10-31T04:05:34;3.50;;;2.35;;
39044;SDS011;52192;52.002;5.956;2022-10-31T04:08:02;3.58;;;1.70;;
39044;SDS011;52192;52.002;5.956;2022-10-31T04:10:32;4.35;;;2.40;;
39044;SDS011;52192;52.002;5.956;2022-10-31T04:13:01;4.18;;;2.25;;
39044;SDS011;52192;52.002;5.956;2022-10-31T04:15:31;3.73;;;1.83;;
39044;SDS011;52192;52.002;5.956;2022-10-31T04:17:58;4.82;;;1.85;;
39044;SDS011;52192;52.002;5.956;2022-10-31T04:20:32;3.47;;;2.00;;
39044;SDS011;52192;52.002;5.956;2022-10-31T04:22:59;3.10;;;2.05;;
39044;SDS011;52192;52.002;5.956;2022-10-31T04:25:26;3.10;;;2.30;;
39044;SDS011;52192;52.002;5.956;2022-10-31T04:27:52;3.60;;;2.63;;
39044;SDS011;52192;52.002;5.956;2022-10-31T04:30:18;7.45;;;2.85;;
39044;SDS011;52192;52.002;5.956;2022-10-31T04:32:43;6.28;;;2.92;;
39044;SDS011;52192;52.002;5.956;2022-10-31T04:35:09;3.72;;;2.55;;
39044;SDS011;52192;52.002;5.956;2022-10-31T04:37:35;3.63;;;2.45;;
39044;SDS011;52192;52.002;5.956;2022-10-31T04:40:00;2.33;;;1.92;;
39044;SDS011;52192;52.002;5.956;2022-10-31T04:42:28;3.35;;;2.13;;
39044;SDS011;52192;52.002;5.956;2022-10-31T04:44:54;5.22;;;2.58;;
39044;SDS011;52192;52.002;5.956;2022-10-31T04:47:20;4.22;;;2.55;;
39044;SDS011;52192;52.002;5.956;2022-10-31T04:49:46;4.03;;;2.42;;
39044;SDS011;52192;52.002;5.956;2022-10-31T04:52:11;3.92;;;2.45;;
39044;SDS011;52192;52.002;5.956;2022-10-31T04:54:37;3.60;;;2.53;;
39044;SDS011;52192;52.002;5.956;2022-10-31T04:57:03;4.95;;;2.58;;
39044;SDS011;52192;52.002;5.956;2022-10-31T04:59:29;3.83;;;2.67;;
39044;SDS011;52192;52.002;5.956;2022-10-31T05:01:54;2.90;;;1.77;;
39044;SDS011;52192;52.002;5.956;2022-10-31T05:04:20;3.10;;;1.98;;
39044;SDS011;52192;52.002;5.956;2022-10-31T05:06:46;3.50;;;2.13;;
39044;SDS011;52192;52.002;5.956;2022-10-31T05:09:12;3.85;;;2.50;;
39044;SDS011;52192;52.002;5.956;2022-10-31T05:11:38;3.72;;;2.40;;
39044;SDS011;52192;52.002;5.956;2022-10-31T05:14:03;6.50;;;2.53;;
39044;SDS011;52192;52.002;5.956;2022-10-31T05:16:29;4.22;;;2.92;;
39044;SDS011;52192;52.002;5.956;2022-10-31T05:18:54;4.65;;;2.83;;
39044;SDS011;52192;52.002;5.956;2022-10-31T05:21:20;3.97;;;2.30;;
39044;SDS011;52192;52.002;5.956;2022-10-31T05:23:46;7.03;;;3.08;;
39044;SDS011;52192;52.002;5.956;2022-10-31T05:26:11;8.48;;;2.78;;
39044;SDS011;52192;52.002;5.956;2022-10-31T05:28:37;4.70;;;2.78;;
39044;SDS011;52192;52.002;5.956;2022-10-31T05:31:03;3.05;;;2.47;;
39044;SDS011;52192;52.002;5.956;2022-10-31T05:33:37;6.15;;;2.58;;
39044;SDS011;52192;52.002;5.956;2022-10-31T05:36:03;4.00;;;2.42;;
39044;SDS011;52192;52.002;5.956;2022-10-31T05:38:29;8.60;;;3.25;;
39044;SDS011;52192;52.002;5.956;2022-10-31T05:40:55;3.47;;;2.95;;
39044;SDS011;52192;52.002;5.956;2022-10-31T05:43:26;4.32;;;2.63;;
39044;SDS011;52192;52.002;5.956;2022-10-31T05:45:53;4.78;;;2.58;;
39044;SDS011;52192;52.002;5.956;2022-10-31T05:48:22;6.22;;;2.75;;
39044;SDS011;52192;52.002;5.956;2022-10-31T05:50:48;4.05;;;3.20;;
39044;SDS011;52192;52.002;5.956;2022-10-31T05:53:14;4.38;;;2.20;;
39044;SDS011;52192;52.002;5.956;2022-10-31T05:55:40;3.45;;;2.22;;
39044;SDS011;52192;52.002;5.956;2022-10-31T05:58:07;4.55;;;2.80;;
39044;SDS011;52192;52.002;5.956;2022-10-31T06:00:32;4.10;;;2.78;;
39044;SDS011;52192;52.002;5.956;2022-10-31T06:03:03;4.38;;;2.80;;
39044;SDS011;52192;52.002;5.956;2022-10-31T06:05:31;3.10;;;2.80;;
39044;SDS011;52192;52.002;5.956;2022-10-31T06:07:57;3.35;;;2.30;;
39044;SDS011;52192;52.002;5.956;2022-10-31T06:10:23;4.80;;;2.58;;
39044;SDS011;52192;52.002;5.956;2022-10-31T06:12:50;4.50;;;3.40;;
39044;SDS011;52192;52.002;5.956;2022-10-31T06:15:16;5.75;;;3.25;;
39044;SDS011;52192;52.002;5.956;2022-10-31T06:17:41;4.95;;;3.22;;
39044;SDS011;52192;52.002;5.956;2022-10-31T06:20:07;4.22;;;3.15;;
39044;SDS011;52192;52.002;5.956;2022-10-31T06:22:34;4.22;;;2.75;;
39044;SDS011;52192;52.002;5.956;2022-10-31T06:24:59;4.10;;;2.67;;
39044;SDS011;52192;52.002;5.956;2022-10-31T06:27:25;5.18;;;2.70;;
39044;SDS011;52192;52.002;5.956;2022-10-31T06:29:51;5.22;;;3.45;;
39044;SDS011;52192;52.002;5.956;2022-10-31T06:32:17;4.35;;;3.17;;
39044;SDS011;52192;52.002;5.956;2022-10-31T06:34:43;4.57;;;2.72;;
39044;SDS011;52192;52.002;5.956;2022-10-31T06:37:10;3.15;;;2.83;;
39044;SDS011;52192;52.002;5.956;2022-10-31T06:39:36;4.72;;;3.53;;
39044;SDS011;52192;52.002;5.956;2022-10-31T06:42:03;6.22;;;3.63;;
39044;SDS011;52192;52.002;5.956;2022-10-31T06:44:29;4.20;;;3.13;;
39044;SDS011;52192;52.002;5.956;2022-10-31T06:46:55;4.40;;;3.20;;
39044;SDS011;52192;52.002;5.956;2022-10-31T06:49:21;4.07;;;2.85;;
39044;SDS011;52192;52.002;5.956;2022-10-31T06:51:47;9.15;;;3.10;;
39044;SDS011;52192;52.002;5.956;2022-10-31T06:54:13;4.93;;;2.72;;
39044;SDS011;52192;52.002;5.956;2022-10-31T06:56:39;5.03;;;3.03;;
39044;SDS011;52192;52.002;5.956;2022-10-31T06:59:04;3.90;;;2.88;;
39044;SDS011;52192;52.002;5.956;2022-10-31T07:01:30;4.25;;;2.72;;
39044;SDS011;52192;52.002;5.956;2022-10-31T07:03:56;5.18;;;3.75;;
39044;SDS011;52192;52.002;5.956;2022-10-31T07:06:21;5.38;;;3.33;;
39044;SDS011;52192;52.002;5.956;2022-10-31T07:08:47;2.53;;;2.10;;
39044;SDS011;52192;52.002;5.956;2022-10-31T07:11:13;7.85;;;4.22;;
39044;SDS011;52192;52.002;5.956;2022-10-31T07:13:39;4.35;;;3.58;;
39044;SDS011;52192;52.002;5.956;2022-10-31T07:16:05;5.18;;;4.30;;
39044;SDS011;52192;52.002;5.956;2022-10-31T07:18:32;6.30;;;3.80;;
39044;SDS011;52192;52.002;5.956;2022-10-31T07:20:58;7.78;;;3.65;;
39044;SDS011;52192;52.002;5.956;2022-10-31T07:23:24;5.22;;;3.60;;
39044;SDS011;52192;52.002;5.956;2022-10-31T07:25:56;4.05;;;3.30;;
39044;SDS011;52192;52.002;5.956;2022-10-31T07:28:23;3.47;;;3.08;;
39044;SDS011;52192;52.002;5.956;2022-10-31T07:30:50;7.35;;;3.55;;
39044;SDS011;52192;52.002;5.956;2022-10-31T07:33:16;9.02;;;3.13;;
39044;SDS011;52192;52.002;5.956;2022-10-31T07:35:42;4.25;;;3.00;;
39044;SDS011;52192;52.002;5.956;2022-10-31T07:38:08;4.95;;;3.45;;
39044;SDS011;52192;52.002;5.956;2022-10-31T07:40:35;5.28;;;3.58;;
39044;SDS011;52192;52.002;5.956;2022-10-31T07:43:01;4.88;;;2.78;;
39044;SDS011;52192;52.002;5.956;2022-10-31T07:45:27;4.07;;;3.05;;
39044;SDS011;52192;52.002;5.956;2022-10-31T07:47:53;4.82;;;3.17;;
39044;SDS011;52192;52.002;5.956;2022-10-31T07:50:20;7.57;;;4.05;;
39044;SDS011;52192;52.002;5.956;2022-10-31T07:53:07;5.63;;;3.35;;
39044;SDS011;52192;52.002;5.956;2022-10-31T07:55:34;7.68;;;3.70;;
39044;SDS011;52192;52.002;5.956;2022-10-31T07:58:01;5.38;;;3.17;;
39044;SDS011;52192;52.002;5.956;2022-10-31T08:00:28;6.45;;;3.53;;
39044;SDS011;52192;52.002;5.956;2022-10-31T08:05:28;4.78;;;3.20;;
39044;SDS011;52192;52.002;5.956;2022-10-31T08:07:55;12.38;;;3.60;;
39044;SDS011;52192;52.002;5.956;2022-10-31T08:10:21;3.90;;;2.95;;
39044;SDS011;52192;52.002;5.956;2022-10-31T08:12:46;5.57;;;3.95;;
39044;SDS011;52192;52.002;5.956;2022-10-31T08:15:12;3.95;;;3.35;;
39044;SDS011;52192;52.002;5.956;2022-10-31T08:17:38;5.88;;;3.35;;
39044;SDS011;52192;52.002;5.956;2022-10-31T08:20:04;4.10;;;3.70;;
39044;SDS011;52192;52.002;5.956;2022-10-31T08:22:31;5.03;;;4.00;;
39044;SDS011;52192;52.002;5.956;2022-10-31T08:24:56;4.13;;;3.17;;
39044;SDS011;52192;52.002;5.956;2022-10-31T08:27:22;6.60;;;3.85;;
39044;SDS011;52192;52.002;5.956;2022-10-31T08:29:48;5.45;;;3.83;;
39044;SDS011;52192;52.002;5.956;2022-10-31T08:32:13;5.65;;;3.97;;
39044;SDS011;52192;52.002;5.956;2022-10-31T08:34:39;3.72;;;3.08;;
39044;SDS011;52192;52.002;5.956;2022-10-31T08:37:05;5.40;;;3.92;;
39044;SDS011;52192;52.002;5.956;2022-10-31T08:39:30;6.78;;;4.15;;
39044;SDS011;52192;52.002;5.956;2022-10-31T08:41:56;9.00;;;4.63;;
39044;SDS011;52192;52.002;5.956;2022-10-31T08:44:22;6.03;;;3.72;;
39044;SDS011;52192;52.002;5.956;2022-10-31T08:46:47;4.53;;;3.42;;
39044;SDS011;52192;52.002;5.956;2022-10-31T08:49:13;7.18;;;4.05;;
39044;SDS011;52192;52.002;5.956;2022-10-31T08:51:39;5.88;;;3.85;;
39044;SDS011;52192;52.002;5.956;2022-10-31T08:54:04;5.07;;;3.42;;
39044;SDS011;52192;52.002;5.956;2022-10-31T08:56:30;6.20;;;4.22;;
39044;SDS011;52192;52.002;5.956;2022-10-31T08:58:56;5.03;;;3.45;;
39044;SDS011;52192;52.002;5.956;2022-10-31T09:01:21;4.72;;;3.63;;
39044;SDS011;52192;52.002;5.956;2022-10-31T09:03:47;8.20;;;4.10;;
39044;SDS011;52192;52.002;5.956;2022-10-31T09:06:13;4.70;;;3.58;;
39044;SDS011;52192;52.002;5.956;2022-10-31T09:08:38;4.43;;;3.35;;
39044;SDS011;52192;52.002;5.956;2022-10-31T09:11:04;5.47;;;3.67;;
39044;SDS011;52192;52.002;5.956;2022-10-31T09:13:31;6.55;;;3.30;;
39044;SDS011;52192;52.002;5.956;2022-10-31T09:15:57;7.32;;;3.72;;
39044;SDS011;52192;52.002;5.956;2022-10-31T09:18:24;7.45;;;3.50;;
39044;SDS011;52192;52.002;5.956;2022-10-31T09:20:52;7.00;;;3.22;;
39044;SDS011;52192;52.002;5.956;2022-10-31T09:23:21;4.43;;;3.25;;
39044;SDS011;52192;52.002;5.956;2022-10-31T09:25:48;5.75;;;4.22;;
39044;SDS011;52192;52.002;5.956;2022-10-31T09:28:16;6.55;;;3.10;;
39044;SDS011;52192;52.002;5.956;2022-10-31T09:30:45;18.42;;;3.42;;
39044;SDS011;52192;52.002;5.956;2022-10-31T09:33:13;5.15;;;3.30;;
39044;SDS011;52192;52.002;5.956;2022-10-31T09:35:39;4.13;;;2.78;;
39044;SDS011;52192;52.002;5.956;2022-10-31T09:38:07;3.15;;;2.47;;
39044;SDS011;52192;52.002;5.956;2022-10-31T09:40:37;6.68;;;3.15;;
39044;SDS011;52192;52.002;5.956;2022-10-31T09:46:30;7.95;;;3.55;;
39044;SDS011;52192;52.002;5.956;2022-10-31T09:51:46;6.57;;;3.05;;
39044;SDS011;52192;52.002;5.956;2022-10-31T09:57:12;5.60;;;3.20;;
39044;SDS011;52192;52.002;5.956;2022-10-31T09:59:40;7.93;;;4.18;;
39044;SDS011;52192;52.002;5.956;2022-10-31T10:10:00;8.68;;;4.75;;
39044;SDS011;52192;52.002;5.956;2022-10-31T10:12:41;8.23;;;4.05;;
39044;SDS011;52192;52.002;5.956;2022-10-31T10:18:10;5.85;;;3.38;;
39044;SDS011;52192;52.002;5.956;2022-10-31T10:26:37;6.28;;;3.78;;
39044;SDS011;52192;52.002;5.956;2022-10-31T10:31:57;4.88;;;3.58;;
39044;SDS011;52192;52.002;5.956;2022-10-31T10:34:34;6.85;;;4.95;;
39044;SDS011;52192;52.002;5.956;2022-10-31T10:40:11;7.85;;;5.13;;
39044;SDS011;52192;52.002;5.956;2022-10-31T10:42:41;11.57;;;5.38;;
39044;SDS011;52192;52.002;5.956;2022-10-31T10:45:37;7.10;;;4.70;;
39044;SDS011;52192;52.002;5.956;2022-10-31T10:48:36;9.25;;;4.97;;
39044;SDS011;52192;52.002;5.956;2022-10-31T10:51:22;5.32;;;3.53;;
39044;SDS011;52192;52.002;5.956;2022-10-31T10:59:21;6.85;;;4.50;;
39044;SDS011;52192;52.002;5.956;2022-10-31T11:01:51;5.85;;;4.15;;
39044;SDS011;52192;52.002;5.956;2022-10-31T11:04:28;8.23;;;3.78;;
39044;SDS011;52192;52.002;5.956;2022-10-31T11:09:24;8.38;;;4.72;;
39044;SDS011;52192;52.002;5.956;2022-10-31T11:11:50;8.40;;;4.93;;
39044;SDS011;52192;52.002;5.956;2022-10-31T11:14:17;3.00;;;2.55;;
39044;SDS011;52192;52.002;5.956;2022-10-31T11:16:45;8.68;;;4.50;;
39044;SDS011;52192;52.002;5.956;2022-10-31T11:21:42;6.35;;;3.53;;
39044;SDS011;52192;52.002;5.956;2022-10-31T11:26:36;8.73;;;4.80;;
39044;SDS011;52192;52.002;5.956;2022-10-31T11:29:03;7.85;;;3.95;;
39044;SDS011;52192;52.002;5.956;2022-10-31T11:31:30;4.15;;;3.40;;
39044;SDS011;52192;52.002;5.956;2022-10-31T11:34:01;5.53;;;3.40;;
39044;SDS011;52192;52.002;5.956;2022-10-31T11:36:38;5.53;;;3.78;;
39044;SDS011;52192;52.002;5.956;2022-10-31T11:39:13;4.70;;;3.75;;
39044;SDS011;52192;52.002;5.956;2022-10-31T11:41:43;10.60;;;6.15;;
39044;SDS011;52192;52.002;5.956;2022-10-31T11:44:19;8.07;;;4.07;;
39044;SDS011;52192;52.002;5.956;2022-10-31T11:46:51;5.70;;;3.53;;
39044;SDS011;52192;52.002;5.956;2022-10-31T11:52:15;9.85;;;4.60;;
39044;SDS011;52192;52.002;5.956;2022-10-31T11:54:46;6.78;;;4.53;;
39044;SDS011;52192;52.002;5.956;2022-10-31T11:57:27;5.43;;;3.75;;
39044;SDS011;52192;52.002;5.956;2022-10-31T11:59:58;14.73;;;5.35;;
39044;SDS011;52192;52.002;5.956;2022-10-31T12:02:26;6.10;;;3.88;;
39044;SDS011;52192;52.002;5.956;2022-10-31T12:05:00;5.40;;;3.55;;
39044;SDS011;52192;52.002;5.956;2022-10-31T12:07:42;20.75;;;5.00;;
39044;SDS011;52192;52.002;5.956;2022-10-31T12:10:12;9.00;;;4.38;;
39044;SDS011;52192;52.002;5.956;2022-10-31T12:26:21;9.23;;;5.35;;
39044;SDS011;52192;52.002;5.956;2022-10-31T12:31:57;4.55;;;3.63;;
39044;SDS011;52192;52.002;5.956;2022-10-31T12:34:58;9.48;;;4.38;;
39044;SDS011;52192;52.002;5.956;2022-10-31T12:40:39;7.70;;;4.53;;
39044;SDS011;52192;52.002;5.956;2022-10-31T12:43:29;7.80;;;4.05;;
39044;SDS011;52192;52.002;5.956;2022-10-31T12:46:04;5.57;;;3.85;;
39044;SDS011;52192;52.002;5.956;2022-10-31T12:48:42;15.23;;;6.88;;
39044;SDS011;52192;52.002;5.956;2022-10-31T12:59:51;8.93;;;5.43;;
39044;SDS011;52192;52.002;5.956;2022-10-31T13:08:21;8.35;;;5.07;;
39044;SDS011;52192;52.002;5.956;2022-10-31T13:10:43;8.65;;;4.72;;
39044;SDS011;52192;52.002;5.956;2022-10-31T13:13:18;6.72;;;4.22;;
39044;SDS011;52192;52.002;5.956;2022-10-31T13:21:34;7.32;;;3.95;;
39044;SDS011;52192;52.002;5.956;2022-10-31T13:24:08;6.32;;;4.60;;
39044;SDS011;52192;52.002;5.956;2022-10-31T13:29:19;7.25;;;4.97;;
39044;SDS011;52192;52.002;5.956;2022-10-31T13:31:53;10.98;;;5.70;;
39044;SDS011;52192;52.002;5.956;2022-10-31T13:34:22;6.93;;;4.22;;
39044;SDS011;52192;52.002;5.956;2022-10-31T13:36:57;9.25;;;4.43;;
39044;SDS011;52192;52.002;5.956;2022-10-31T13:42:14;6.18;;;3.85;;
39044;SDS011;52192;52.002;5.956;2022-10-31T13:45:13;9.50;;;4.07;;
39044;SDS011;52192;52.002;5.956;2022-10-31T13:47:40;7.47;;;3.95;;
39044;SDS011;52192;52.002;5.956;2022-10-31T13:50:24;4.93;;;3.47;;
39044;SDS011;52192;52.002;5.956;2022-10-31T13:52:52;4.78;;;3.03;;
39044;SDS011;52192;52.002;5.956;2022-10-31T13:56:10;7.22;;;3.88;;
39044;SDS011;52192;52.002;5.956;2022-10-31T13:58:54;7.55;;;3.67;;
39044;SDS011;52192;52.002;5.956;2022-10-31T14:01:28;6.80;;;4.05;;
39044;SDS011;52192;52.002;5.956;2022-10-31T14:03:57;8.27;;;4.10;;
39044;SDS011;52192;52.002;5.956;2022-10-31T14:06:38;6.40;;;3.93;;
39044;SDS011;52192;52.002;5.956;2022-10-31T14:09:18;10.35;;;6.07;;
39044;SDS011;52192;52.002;5.956;2022-10-31T14:12:44;10.60;;;4.47;;
39044;SDS011;52192;52.002;5.956;2022-10-31T14:15:03;7.68;;;4.13;;
39044;SDS011;52192;52.002;5.956;2022-10-31T14:17:50;6.68;;;4.13;;
39044;SDS011;52192;52.002;5.956;2022-10-31T14:20:24;7.88;;;3.78;;
39044;SDS011;52192;52.002;5.956;2022-10-31T14:23:09;9.35;;;4.15;;
39044;SDS011;52192;52.002;5.956;2022-10-31T14:28:42;6.28;;;3.83;;
39044;SDS011;52192;52.002;5.956;2022-10-31T14:31:27;10.23;;;5.30;;
39044;SDS011;52192;52.002;5.956;2022-10-31T14:36:56;10.50;;;4.78;;
39044;SDS011;52192;52.002;5.956;2022-10-31T14:39:31;11.18;;;4.57;;
39044;SDS011;52192;52.002;5.956;2022-10-31T14:50:40;7.65;;;4.55;;
39044;SDS011;52192;52.002;5.956;2022-10-31T14:53:18;7.55;;;3.75;;
39044;SDS011;52192;52.002;5.956;2022-10-31T14:55:56;6.05;;;3.88;;
39044;SDS011;52192;52.002;5.956;2022-10-31T14:58:41;5.18;;;4.15;;
39044;SDS011;52192;52.002;5.956;2022-10-31T15:01:18;7.78;;;3.92;;
39044;SDS011;52192;52.002;5.956;2022-10-31T15:03:48;4.97;;;4.30;;
39044;SDS011;52192;52.002;5.956;2022-10-31T15:06:16;7.30;;;4.85;;
39044;SDS011;52192;52.002;5.956;2022-10-31T15:08:46;10.07;;;5.20;;
39044;SDS011;52192;52.002;5.956;2022-10-31T15:11:18;6.10;;;3.70;;
39044;SDS011;52192;52.002;5.956;2022-10-31T15:13:52;7.90;;;3.88;;
39044;SDS011;52192;52.002;5.956;2022-10-31T15:16:34;9.38;;;4.28;;
39044;SDS011;52192;52.002;5.956;2022-10-31T15:19:04;4.38;;;3.53;;
39044;SDS011;52192;52.002;5.956;2022-10-31T15:21:31;4.57;;;3.33;;
39044;SDS011;52192;52.002;5.956;2022-10-31T15:24:00;5.70;;;3.40;;
39044;SDS011;52192;52.002;5.956;2022-10-31T15:26:37;4.82;;;3.33;;
39044;SDS011;52192;52.002;5.956;2022-10-31T15:29:12;9.07;;;4.32;;
39044;SDS011;52192;52.002;5.956;2022-10-31T15:31:52;7.60;;;3.80;;
39044;SDS011;52192;52.002;5.956;2022-10-31T15:34:37;7.38;;;3.58;;
39044;SDS011;52192;52.002;5.956;2022-10-31T15:37:11;11.48;;;5.13;;
39044;SDS011;52192;52.002;5.956;2022-10-31T15:39:41;8.13;;;4.45;;
39044;SDS011;52192;52.002;5.956;2022-10-31T15:42:41;8.60;;;4.82;;
39044;SDS011;52192;52.002;5.956;2022-10-31T15:45:05;9.18;;;4.97;;
39044;SDS011;52192;52.002;5.956;2022-10-31T15:47:34;14.65;;;5.10;;
39044;SDS011;52192;52.002;5.956;2022-10-31T15:50:02;8.10;;;4.72;;
39044;SDS011;52192;52.002;5.956;2022-10-31T15:52:39;17.23;;;5.35;;
39044;SDS011;52192;52.002;5.956;2022-10-31T15:57:33;7.13;;;4.32;;
39044;SDS011;52192;52.002;5.956;2022-10-31T16:00:06;5.95;;;4.13;;
39044;SDS011;52192;52.002;5.956;2022-10-31T16:02:46;9.05;;;4.72;;
39044;SDS011;52192;52.002;5.956;2022-10-31T16:05:15;8.00;;;4.30;;
39044;SDS011;52192;52.002;5.956;2022-10-31T16:07:49;6.75;;;3.58;;
39044;SDS011;52192;52.002;5.956;2022-10-31T16:10:24;12.40;;;4.53;;
39044;SDS011;52192;52.002;5.956;2022-10-31T16:12:51;7.60;;;4.95;;
39044;SDS011;52192;52.002;5.956;2022-10-31T16:15:18;7.07;;;5.60;;
39044;SDS011;52192;52.002;5.956;2022-10-31T16:17:46;8.80;;;4.75;;
39044;SDS011;52192;52.002;5.956;2022-10-31T16:20:18;7.07;;;4.45;;
39044;SDS011;52192;52.002;5.956;2022-10-31T16:22:56;4.37;;;3.00;;
39044;SDS011;52192;52.002;5.956;2022-10-31T16:27:56;6.93;;;3.30;;
39044;SDS011;52192;52.002;5.956;2022-10-31T16:32:58;12.77;;;4.28;;
39044;SDS011;52192;52.002;5.956;2022-10-31T16:35:32;7.28;;;3.88;;
39044;SDS011;52192;52.002;5.956;2022-10-31T16:37:59;11.38;;;5.00;;
39044;SDS011;52192;52.002;5.956;2022-10-31T16:40:25;11.68;;;5.15;;
39044;SDS011;52192;52.002;5.956;2022-10-31T16:42:51;9.27;;;4.38;;
39044;SDS011;52192;52.002;5.956;2022-10-31T16:45:19;12.50;;;5.38;;
39044;SDS011;52192;52.002;5.956;2022-10-31T16:47:47;12.07;;;5.45;;
39044;SDS011;52192;52.002;5.956;2022-10-31T16:50:15;7.65;;;4.90;;
39044;SDS011;52192;52.002;5.956;2022-10-31T16:52:48;9.35;;;5.22;;
39044;SDS011;52192;52.002;5.956;2022-10-31T16:55:14;8.82;;;5.47;;
39044;SDS011;52192;52.002;5.956;2022-10-31T16:57:41;5.72;;;4.20;;
39044;SDS011;52192;52.002;5.956;2022-10-31T17:00:19;5.80;;;4.75;;
39044;SDS011;52192;52.002;5.956;2022-10-31T17:02:47;6.75;;;4.32;;
39044;SDS011;52192;52.002;5.956;2022-10-31T17:05:22;5.45;;;4.03;;
39044;SDS011;52192;52.002;5.956;2022-10-31T17:07:55;6.35;;;4.15;;
39044;SDS011;52192;52.002;5.956;2022-10-31T17:10:21;6.60;;;3.65;;
39044;SDS011;52192;52.002;5.956;2022-10-31T17:12:48;10.25;;;4.07;;
39044;SDS011;52192;52.002;5.956;2022-10-31T17:15:22;11.45;;;4.90;;
39044;SDS011;52192;52.002;5.956;2022-10-31T17:17:49;6.80;;;5.07;;
39044;SDS011;52192;52.002;5.956;2022-10-31T17:20:25;4.93;;;3.78;;
39044;SDS011;52192;52.002;5.956;2022-10-31T17:22:53;7.80;;;4.03;;
39044;SDS011;52192;52.002;5.956;2022-10-31T17:25:20;7.28;;;3.97;;
39044;SDS011;52192;52.002;5.956;2022-10-31T17:27:48;10.70;;;5.30;;
39044;SDS011;52192;52.002;5.956;2022-10-31T17:30:14;6.13;;;4.30;;
39044;SDS011;52192;52.002;5.956;2022-10-31T17:32:42;4.70;;;3.53;;